Time;durP1;ratioP1;P1;durP2;ratioP2;P2;SDS_P1;SDS_P2;PMS_P1;PMS_P2;Temp;Humidity;BMP_temperature;BMP_pressure;BME280_temperature;BME280_humidity;BME280_pressure;Samples;Min_cycle;Max_cycle;Signal;HPM_P1;HPM_P2
2021/07/07 00:00:11;;;;;;;11.37;10.17;;;16.50;99.90;;;;;;5066588;28;20650;-84
2021/07/07 00:02:37;;;;;;;9.90;9.00;;;16.40;99.90;;;;;;5072424;28;20659;-84
2021/07/07 00:05:06;;;;;;;10.90;9.90;;;16.50;99.90;;;;;;5071713;28;21141;-84
2021/07/07 00:07:33;;;;;;;9.70;8.73;;;16.60;99.90;;;;;;5072338;28;20707;-84
2021/07/07 00:10:01;;;;;;;9.90;9.00;;;16.60;99.90;;;;;;5071441;28;20630;-84
2021/07/07 00:12:28;;;;;;;10.03;9.10;;;16.60;99.90;;;;;;5072158;28;21107;-84
2021/07/07 00:14:55;;;;;;;10.53;9.43;;;16.60;99.90;;;;;;5066169;28;21322;-84
2021/07/07 00:17:23;;;;;;;14.23;9.80;;;16.50;99.90;;;;;;5072380;28;20625;-84
2021/07/07 00:19:50;;;;;;;9.00;8.10;;;16.50;99.90;;;;;;5071798;28;20625;-84
2021/07/07 00:22:17;;;;;;;10.00;9.00;;;16.50;99.90;;;;;;5071767;28;20623;-84
2021/07/07 00:24:45;;;;;;;10.13;9.17;;;16.50;99.90;;;;;;5070816;28;20608;-84
2021/07/07 00:27:13;;;;;;;11.87;10.63;;;16.60;99.90;;;;;;5072069;28;20646;-84
2021/07/07 00:29:40;;;;;;;11.50;10.40;;;16.50;99.90;;;;;;5066081;28;20712;-83
2021/07/07 00:32:08;;;;;;;10.80;9.70;;;16.40;99.90;;;;;;5071794;28;20630;-84
2021/07/07 00:34:36;;;;;;;10.87;9.67;;;16.40;99.90;;;;;;5071252;28;20637;-84
2021/07/07 00:37:03;;;;;;;10.37;9.30;;;16.40;99.90;;;;;;5070182;28;20623;-84
2021/07/07 00:39:30;;;;;;;11.33;10.30;;;16.40;99.90;;;;;;5071608;28;20692;-84
2021/07/07 00:41:57;;;;;;;9.93;8.80;;;16.30;99.90;;;;;;5071106;28;20638;-84
2021/07/07 00:44:24;;;;;;;9.93;8.93;;;16.30;99.90;;;;;;5058303;28;20646;-84
2021/07/07 00:46:51;;;;;;;10.47;9.37;;;16.30;99.90;;;;;;5051475;28;20641;-84
2021/07/07 00:49:18;;;;;;;10.87;9.77;;;16.30;99.90;;;;;;5060618;28;20612;-85
2021/07/07 00:51:47;;;;;;;11.30;8.60;;;16.40;99.90;;;;;;5071028;28;20620;-84
2021/07/07 00:54:15;;;;;;;11.60;10.40;;;16.40;99.90;;;;;;5071653;28;20763;-85
2021/07/07 00:56:43;;;;;;;12.13;10.20;;;16.60;99.90;;;;;;5070980;28;20627;-84
2021/07/07 00:59:10;;;;;;;11.50;10.30;;;16.50;99.90;;;;;;5065231;28;20687;-84
2021/07/07 01:01:40;;;;;;;11.47;10.37;;;16.60;99.90;;;;;;5070211;28;21184;-84
2021/07/07 01:04:08;;;;;;;12.60;11.30;;;16.60;99.90;;;;;;5071012;28;21353;-84
2021/07/07 01:06:36;;;;;;;11.33;10.17;;;16.60;99.90;;;;;;5070620;28;20720;-85
2021/07/07 01:09:05;;;;;;;10.57;9.57;;;16.70;99.90;;;;;;5071111;28;20626;-85
2021/07/07 01:11:34;;;;;;;11.10;10.00;;;16.60;99.90;;;;;;5071480;28;21123;-85
2021/07/07 01:14:02;;;;;;;12.00;9.30;;;16.70;99.90;;;;;;5065995;28;21008;-85
2021/07/07 01:16:31;;;;;;;9.53;8.63;;;16.60;99.90;;;;;;5069997;28;20615;-85
2021/07/07 01:18:59;;;;;;;14.93;10.30;;;16.70;99.90;;;;;;5070579;28;20626;-84
2021/07/07 01:21:27;;;;;;;9.23;8.33;;;16.70;99.90;;;;;;5070901;28;20608;-84
2021/07/07 01:23:56;;;;;;;10.90;9.80;;;16.60;99.90;;;;;;5070879;28;20655;-84
2021/07/07 01:26:24;;;;;;;11.37;10.27;;;16.60;99.90;;;;;;5070118;28;20614;-84
2021/07/07 01:28:52;;;;;;;11.00;9.30;;;16.60;99.90;;;;;;5068391;28;20669;-84
2021/07/07 01:31:20;;;;;;;12.60;9.60;;;16.60;99.90;;;;;;5067432;28;20656;-84
2021/07/07 01:33:48;;;;;;;8.43;7.53;;;16.50;99.90;;;;;;5070777;28;20649;-84
2021/07/07 01:36:16;;;;;;;10.60;9.50;;;16.50;99.90;;;;;;5069378;28;20610;-86
2021/07/07 01:38:43;;;;;;;11.27;8.20;;;16.60;99.90;;;;;;5070564;28;20693;-86
2021/07/07 01:41:15;;;;;;;10.10;9.10;;;16.80;99.90;;;;;;5071002;28;20649;-87
2021/07/07 01:43:43;;;;;;;10.70;9.60;;;16.90;99.90;;;;;;5069020;28;20655;-88
2021/07/07 01:46:11;;;;;;;14.57;9.57;;;16.80;99.90;;;;;;5057303;28;21402;-86
2021/07/07 01:48:41;;;;;;;11.90;8.73;;;16.70;99.90;;;;;;5070669;28;20638;-88
2021/07/07 01:51:09;;;;;;;9.23;7.67;;;16.80;99.90;;;;;;5071096;28;20625;-86
2021/07/07 01:53:36;;;;;;;9.93;8.20;;;16.70;99.90;;;;;;5070475;28;21231;-86
2021/07/07 01:56:05;;;;;;;11.37;10.17;;;16.50;99.90;;;;;;5070127;28;20725;-86
2021/07/07 01:58:34;;;;;;;12.63;9.60;;;16.40;99.90;;;;;;5066963;28;20737;-86
2021/07/07 02:01:02;;;;;;;13.90;9.80;;;16.50;99.90;;;;;;5054832;28;20634;-85
2021/07/07 02:03:30;;;;;;;17.50;9.20;;;16.50;99.90;;;;;;5057317;28;20636;-85
2021/07/07 02:06:01;;;;;;;11.03;9.80;;;16.40;99.90;;;;;;5061329;28;20630;-85
2021/07/07 02:08:30;;;;;;;10.90;9.80;;;16.40;99.90;;;;;;5070645;28;21183;-85
2021/07/07 02:10:58;;;;;;;13.73;10.30;;;16.50;99.90;;;;;;5070678;28;20639;-85
2021/07/07 02:13:29;;;;;;;11.70;9.63;;;16.40;99.90;;;;;;5073845;28;20645;-85
2021/07/07 02:15:58;;;;;;;13.10;11.77;;;16.50;99.90;;;;;;5069330;28;20649;-84
2021/07/07 02:18:28;;;;;;;12.37;10.40;;;16.40;99.90;;;;;;5074463;28;21033;-86
2021/07/07 02:20:57;;;;;;;13.83;11.70;;;16.50;99.90;;;;;;5074179;28;20631;-87
2021/07/07 02:23:26;;;;;;;13.10;10.60;;;16.70;99.90;;;;;;5074055;28;21001;-86
2021/07/07 02:25:54;;;;;;;12.97;11.67;;;16.60;99.90;;;;;;5073759;28;20627;-86
2021/07/07 02:28:25;;;;;;;11.50;10.30;;;16.50;99.90;;;;;;5073934;28;20625;-87
2021/07/07 02:30:55;;;;;;;11.77;10.57;;;16.60;99.90;;;;;;5069085;28;20654;-87
2021/07/07 02:33:25;;;;;;;11.30;10.20;;;16.50;99.90;;;;;;5073895;28;20969;-88
2021/07/07 02:35:56;;;;;;;12.87;11.17;;;16.60;99.90;;;;;;5072274;28;20630;-87
2021/07/07 02:38:26;;;;;;;11.97;10.77;;;16.60;99.90;;;;;;5074031;28;20622;-87
2021/07/07 02:40:55;;;;;;;12.07;10.20;;;16.60;99.90;;;;;;5073983;28;20623;-87
2021/07/07 02:43:29;;;;;;;11.90;9.77;;;16.60;99.90;;;;;;5074097;28;20642;-86
2021/07/07 02:45:57;;;;;;;10.77;9.77;;;16.40;99.90;;;;;;5069092;28;20629;-87
2021/07/07 02:48:26;;;;;;;10.00;8.83;;;16.40;99.90;;;;;;5073369;28;21194;-87
2021/07/07 02:50:53;;;;;;;11.97;9.30;;;16.40;99.90;;;;;;5073884;28;20601;-87
2021/07/07 02:53:20;;;;;;;10.07;9.10;;;16.40;99.90;;;;;;5066105;28;20633;-87
2021/07/07 02:55:48;;;;;;;12.67;9.00;;;16.40;99.90;;;;;;5068169;28;21188;-87
2021/07/07 02:58:15;;;;;;;11.50;9.03;;;16.30;99.90;;;;;;5073154;28;20626;-87
2021/07/07 03:00:43;;;;;;;9.20;8.27;;;16.30;99.90;;;;;;5073194;28;20628;-87
2021/07/07 03:03:12;;;;;;;8.43;7.63;;;16.30;99.90;;;;;;5073339;28;20615;-87
2021/07/07 03:05:42;;;;;;;9.63;8.63;;;16.30;99.90;;;;;;5072837;28;20988;-87
2021/07/07 03:08:10;;;;;;;11.87;9.47;;;16.30;99.90;;;;;;5073788;28;20636;-86
2021/07/07 03:10:38;;;;;;;9.97;8.90;;;16.30;99.90;;;;;;5073512;28;20618;-87
2021/07/07 03:13:05;;;;;;;12.77;9.37;;;16.30;99.90;;;;;;5073712;28;20617;-86
2021/07/07 03:15:35;;;;;;;10.60;8.80;;;16.30;99.90;;;;;;5066811;28;20733;-86
2021/07/07 03:18:03;;;;;;;9.37;8.37;;;16.30;99.90;;;;;;5073478;28;20715;-88
2021/07/07 03:20:30;;;;;;;12.50;9.27;;;16.40;99.90;;;;;;5073622;28;20972;-88
2021/07/07 03:22:59;;;;;;;12.33;9.47;;;16.50;99.90;;;;;;5072590;28;20607;-88
2021/07/07 03:25:26;;;;;;;11.43;8.17;;;16.80;99.90;;;;;;5072761;28;20996;-88
2021/07/07 03:27:53;;;;;;;13.70;7.90;;;16.60;99.90;;;;;;5072788;28;20617;-87
2021/07/07 03:30:20;;;;;;;11.20;8.80;;;16.40;99.90;;;;;;5073299;28;20610;-86
2021/07/07 03:32:48;;;;;;;10.53;9.13;;;16.20;99.90;;;;;;5069573;28;20636;-87
2021/07/07 03:35:15;;;;;;;9.37;7.93;;;16.10;99.90;;;;;;5069015;28;20657;-87
2021/07/07 03:37:42;;;;;;;8.23;5.93;;;16.20;99.90;;;;;;5072504;28;20612;-87
2021/07/07 03:40:13;;;;;;;6.03;5.17;;;16.10;99.90;;;;;;5073233;28;20609;-88
2021/07/07 03:42:40;;;;;;;4.87;4.47;;;16.00;99.90;;;;;;5072270;28;20655;-88
2021/07/07 03:45:10;;;;;;;3.93;3.50;;;16.00;99.90;;;;;;5058969;28;20626;-88
2021/07/07 03:47:37;;;;;;;3.50;3.20;;;16.00;99.90;;;;;;5052531;28;20610;-88
2021/07/07 03:50:06;;;;;;;3.57;3.10;;;15.90;99.90;;;;;;5060069;28;20645;-87
2021/07/07 03:52:34;;;;;;;4.00;2.90;;;15.90;99.90;;;;;;5073079;28;21162;-87
2021/07/07 03:55:04;;;;;;;3.30;3.10;;;16.10;99.90;;;;;;5071899;28;20736;-88
2021/07/07 03:57:32;;;;;;;3.73;3.43;;;16.00;99.90;;;;;;5072674;28;20617;-88
2021/07/07 03:59:59;;;;;;;4.27;2.60;;;16.00;99.90;;;;;;5071902;28;20628;-88
2021/07/07 04:02:27;;;;;;;3.00;2.80;;;16.00;99.90;;;;;;5072172;28;20692;-87
2021/07/07 04:04:54;;;;;;;3.60;2.70;;;16.00;99.90;;;;;;5071845;28;20622;-87
2021/07/07 04:07:21;;;;;;;5.50;2.90;;;16.00;99.90;;;;;;5071351;28;20611;-87
2021/07/07 04:09:48;;;;;;;2.63;2.47;;;15.90;99.90;;;;;;5070872;28;20602;-86
2021/07/07 04:12:15;;;;;;;3.37;2.57;;;15.90;99.90;;;;;;5070290;28;21245;-86
2021/07/07 04:14:43;;;;;;;3.13;2.90;;;15.90;99.90;;;;;;5070333;28;20640;-85
2021/07/07 04:17:10;;;;;;;3.20;2.90;;;15.90;99.90;;;;;;5070644;28;21005;-86
2021/07/07 04:19:37;;;;;;;3.33;3.10;;;15.90;99.90;;;;;;5070404;28;20610;-86
2021/07/07 04:22:04;;;;;;;3.90;3.60;;;15.90;99.90;;;;;;5070139;28;21174;-86
2021/07/07 04:24:31;;;;;;;8.10;3.93;;;15.90;99.90;;;;;;5071159;28;21268;-86
2021/07/07 04:26:58;;;;;;;3.90;3.60;;;15.80;99.90;;;;;;5071858;28;20612;-86
2021/07/07 04:29:25;;;;;;;3.20;3.00;;;15.90;99.90;;;;;;5071980;28;20639;-86
2021/07/07 04:31:56;;;;;;;4.37;3.97;;;15.90;99.90;;;;;;5071779;28;20664;-86
2021/07/07 04:34:24;;;;;;;4.10;3.80;;;16.00;99.90;;;;;;5070998;28;20631;-86
2021/07/07 04:36:51;;;;;;;4.77;4.37;;;16.00;99.90;;;;;;5070368;28;20613;-86
2021/07/07 04:39:18;;;;;;;4.20;3.90;;;16.00;99.90;;;;;;5071540;28;20614;-86
2021/07/07 04:41:45;;;;;;;4.63;4.30;;;15.90;99.90;;;;;;5071077;28;20613;-86
2021/07/07 04:44:12;;;;;;;4.73;4.30;;;15.90;99.90;;;;;;5066135;28;20619;-85
2021/07/07 04:46:39;;;;;;;6.40;4.50;;;16.00;99.90;;;;;;5051112;28;20624;-86
2021/07/07 04:49:07;;;;;;;5.80;5.30;;;15.90;99.90;;;;;;5051300;28;21182;-86
2021/07/07 04:51:35;;;;;;;6.00;5.50;;;16.10;99.90;;;;;;5064928;28;20629;-85
2021/07/07 04:54:02;;;;;;;7.17;6.37;;;16.10;99.90;;;;;;5071286;28;20629;-85
2021/07/07 04:56:29;;;;;;;6.93;5.87;;;16.10;99.90;;;;;;5070859;28;20602;-85
2021/07/07 04:58:56;;;;;;;6.83;5.50;;;16.20;99.90;;;;;;5071337;28;20966;-86
2021/07/07 05:01:22;;;;;;;5.30;4.70;;;16.10;99.90;;;;;;5071209;28;20610;-87
2021/07/07 05:03:49;;;;;;;6.07;5.57;;;16.10;99.90;;;;;;5070985;28;20627;-86
2021/07/07 05:06:18;;;;;;;5.43;4.80;;;16.10;99.90;;;;;;5071161;28;20672;-86
2021/07/07 05:08:45;;;;;;;4.87;4.47;;;16.00;99.90;;;;;;5071191;28;20633;-86
2021/07/07 05:11:12;;;;;;;5.07;4.57;;;16.00;99.90;;;;;;5070865;28;20626;-86
2021/07/07 05:13:39;;;;;;;4.50;4.00;;;16.00;99.90;;;;;;5069748;28;20628;-86
2021/07/07 05:16:06;;;;;;;4.13;3.83;;;16.00;99.90;;;;;;5070617;28;20638;-86
2021/07/07 05:18:33;;;;;;;4.10;3.53;;;16.00;99.90;;;;;;5070648;28;20612;-87
2021/07/07 05:21:00;;;;;;;4.77;4.37;;;16.10;99.90;;;;;;5070945;28;20639;-86
2021/07/07 05:23:33;;;;;;;5.30;4.57;;;16.20;99.90;;;;;;5070978;28;20621;-87
2021/07/07 05:26:00;;;;;;;8.20;7.17;;;16.20;99.90;;;;;;5070330;28;20712;-87
2021/07/07 05:28:27;;;;;;;5.40;5.00;;;16.10;99.90;;;;;;5070696;28;20706;-86
2021/07/07 05:30:57;;;;;;;4.27;3.90;;;16.00;99.90;;;;;;5070150;28;20623;-85
2021/07/07 05:33:30;;;;;;;5.53;3.83;;;15.90;99.90;;;;;;5071073;28;20622;-86
2021/07/07 05:35:57;;;;;;;4.73;4.33;;;15.80;99.90;;;;;;5061970;28;20642;-86
2021/07/07 05:38:24;;;;;;;4.40;4.00;;;15.80;99.90;;;;;;5059091;28;20610;-87
2021/07/07 05:40:52;;;;;;;6.37;3.73;;;16.00;99.90;;;;;;5065052;28;20629;-87
2021/07/07 05:43:19;;;;;;;3.90;3.60;;;16.10;99.90;;;;;;5068086;28;20621;-87
2021/07/07 05:45:46;;;;;;;4.20;3.80;;;16.10;99.90;;;;;;5056048;28;20619;-87
2021/07/07 05:48:13;;;;;;;3.70;3.50;;;16.30;99.90;;;;;;5069024;28;21220;-87
2021/07/07 05:50:40;;;;;;;3.60;3.30;;;16.30;99.90;;;;;;5060546;28;21213;-87
2021/07/07 05:53:07;;;;;;;5.33;3.33;;;16.30;99.90;;;;;;5069352;28;20616;-86
2021/07/07 05:55:34;;;;;;;3.47;3.17;;;16.30;99.90;;;;;;5053786;28;20675;-87
2021/07/07 05:58:03;;;;;;;3.90;3.60;;;16.20;99.90;;;;;;5058510;28;20732;-86
2021/07/07 06:00:30;;;;;;;3.13;2.83;;;16.00;99.90;;;;;;5060439;28;21209;-86
2021/07/07 06:02:58;;;;;;;3.90;3.50;;;16.00;99.90;;;;;;5057795;28;20612;-86
2021/07/07 06:05:26;;;;;;;4.40;4.00;;;16.00;99.90;;;;;;5065474;28;20613;-86
2021/07/07 06:07:55;;;;;;;4.53;4.13;;;16.10;99.90;;;;;;5067768;28;20712;-87
2021/07/07 06:10:24;;;;;;;5.47;4.47;;;16.30;99.90;;;;;;5068144;28;20997;-88
2021/07/07 06:12:51;;;;;;;4.37;3.97;;;16.40;99.90;;;;;;5068411;28;20646;-86
2021/07/07 06:15:20;;;;;;;5.67;4.53;;;16.50;99.90;;;;;;5069379;28;20671;-87
2021/07/07 06:17:47;;;;;;;5.60;4.90;;;16.50;99.90;;;;;;5070480;28;20594;-87
2021/07/07 06:20:15;;;;;;;6.60;6.00;;;16.40;99.90;;;;;;5070420;28;20602;-87
2021/07/07 06:22:43;;;;;;;6.20;5.23;;;16.50;99.90;;;;;;5050622;28;20612;-87
2021/07/07 06:25:12;;;;;;;4.87;4.37;;;16.60;99.90;;;;;;5049886;28;20613;-88
2021/07/07 06:27:40;;;;;;;3.70;3.40;;;16.50;99.90;;;;;;5049673;28;20604;-86
2021/07/07 06:30:10;;;;;;;5.07;3.90;;;16.50;99.90;;;;;;5049189;28;21000;-86
2021/07/07 06:32:39;;;;;;;9.63;4.07;;;16.40;99.90;;;;;;5068398;28;21023;-86
2021/07/07 06:35:07;;;;;;;5.90;2.93;;;16.50;99.90;;;;;;5068501;28;21443;-86
2021/07/07 06:37:34;;;;;;;2.90;2.60;;;16.60;99.90;;;;;;5068704;28;21022;-85
2021/07/07 06:40:03;;;;;;;2.53;2.33;;;16.50;99.90;;;;;;5069434;28;21091;-86
2021/07/07 06:42:30;;;;;;;2.97;2.40;;;16.70;99.90;;;;;;5068487;28;20701;-85
2021/07/07 06:44:57;;;;;;;4.43;2.80;;;16.60;99.90;;;;;;5068267;28;20684;-85
2021/07/07 06:47:25;;;;;;;2.80;2.33;;;16.50;99.90;;;;;;5068560;28;21176;-85
2021/07/07 06:49:53;;;;;;;3.80;3.50;;;16.40;99.90;;;;;;5069443;28;21124;-85
2021/07/07 06:52:20;;;;;;;4.83;3.33;;;16.30;99.90;;;;;;5064510;28;20624;-85
2021/07/07 06:54:48;;;;;;;5.60;3.80;;;16.30;99.90;;;;;;5053947;28;20715;-86
2021/07/07 06:57:15;;;;;;;5.20;2.80;;;16.30;99.90;;;;;;5049583;28;20957;-85
2021/07/07 06:59:42;;;;;;;2.20;2.10;;;16.40;99.90;;;;;;5052499;28;21234;-84
2021/07/07 07:02:09;;;;;;;2.67;2.47;;;16.30;99.90;;;;;;5068291;28;20627;-85
2021/07/07 07:04:36;;;;;;;1.97;1.70;;;16.30;99.90;;;;;;5072146;28;20649;-85
2021/07/07 07:07:05;;;;;;;2.20;2.07;;;16.20;99.90;;;;;;5073272;28;20618;-84
2021/07/07 07:09:32;;;;;;;2.73;2.50;;;16.20;99.90;;;;;;5072918;28;21234;-84
2021/07/07 07:11:59;;;;;;;3.87;2.37;;;16.30;99.90;;;;;;5072348;28;20971;-84
2021/07/07 07:14:26;;;;;;;2.27;1.90;;;16.30;99.90;;;;;;5055547;28;20611;-85
2021/07/07 07:16:53;;;;;;;6.23;3.17;;;16.30;99.90;;;;;;5052532;28;20639;-85
2021/07/07 07:19:20;;;;;;;3.40;2.90;;;16.30;99.90;;;;;;5052919;28;20623;-85
2021/07/07 07:21:47;;;;;;;3.77;2.70;;;16.30;99.90;;;;;;5064550;28;20613;-85
2021/07/07 07:24:15;;;;;;;3.70;2.60;;;16.40;99.90;;;;;;5072850;28;20615;-85
2021/07/07 07:26:42;;;;;;;2.83;2.63;;;16.40;99.90;;;;;;5072440;28;20975;-84
2021/07/07 07:29:09;;;;;;;5.33;3.87;;;16.50;99.90;;;;;;5072695;28;20676;-86
2021/07/07 07:31:36;;;;;;;2.90;2.70;;;16.50;99.90;;;;;;5072106;28;20622;-85
2021/07/07 07:34:03;;;;;;;2.90;2.70;;;16.60;99.90;;;;;;5072112;28;21140;-85
2021/07/07 07:36:30;;;;;;;4.70;2.40;;;16.60;99.90;;;;;;5072562;28;20648;-85
2021/07/07 07:39:03;;;;;;;3.77;3.07;;;16.70;99.90;;;;;;5072713;28;20626;-85
2021/07/07 07:41:33;;;;;;;3.57;3.00;;;16.70;99.90;;;;;;5072197;28;20642;-85
2021/07/07 07:44:00;;;;;;;3.60;2.40;;;16.70;99.90;;;;;;5057369;28;20704;-85
2021/07/07 07:46:29;;;;;;;2.37;1.93;;;16.70;99.90;;;;;;5071648;28;20615;-84
2021/07/07 07:48:56;;;;;;;5.57;2.70;;;16.50;99.90;;;;;;5071206;28;20617;-85
2021/07/07 07:51:24;;;;;;;7.70;3.33;;;16.30;99.90;;;;;;5071776;28;20681;-85
2021/07/07 07:53:52;;;;;;;2.83;2.63;;;16.30;99.90;;;;;;5071847;28;20725;-85
2021/07/07 07:56:19;;;;;;;3.83;3.13;;;16.40;99.90;;;;;;5071093;28;21428;-86
2021/07/07 07:58:48;;;;;;;4.10;3.80;;;16.60;99.90;;;;;;5071853;28;20616;-86
2021/07/07 08:01:15;;;;;;;3.60;2.70;;;16.70;99.90;;;;;;5071777;28;20660;-85
2021/07/07 08:03:42;;;;;;;4.40;2.40;;;16.70;99.90;;;;;;5072405;28;20625;-86
2021/07/07 08:06:09;;;;;;;3.50;2.37;;;16.90;99.90;;;;;;5071515;28;20625;-86
2021/07/07 08:08:36;;;;;;;2.40;2.07;;;16.90;99.90;;;;;;5071695;28;20616;-86
2021/07/07 08:11:03;;;;;;;2.53;2.20;;;16.90;99.90;;;;;;5070997;28;21223;-86
2021/07/07 08:13:30;;;;;;;2.13;1.97;;;16.90;99.90;;;;;;5071481;28;20610;-86
2021/07/07 08:15:59;;;;;;;5.30;2.30;;;16.80;99.90;;;;;;5071304;28;20709;-85
2021/07/07 08:18:26;;;;;;;3.20;2.07;;;16.70;99.90;;;;;;5072214;28;20678;-86
2021/07/07 08:20:53;;;;;;;2.30;2.10;;;16.80;99.90;;;;;;5061787;28;20613;-86
2021/07/07 08:23:20;;;;;;;2.33;1.87;;;16.90;99.90;;;;;;5071848;28;20616;-86
2021/07/07 08:25:48;;;;;;;4.27;2.10;;;17.00;99.90;;;;;;5053865;28;20631;-86
2021/07/07 08:28:15;;;;;;;2.30;2.10;;;17.00;99.90;;;;;;5051154;28;20651;-85
2021/07/07 08:30:42;;;;;;;3.17;2.07;;;17.00;99.90;;;;;;5052869;28;20628;-86
2021/07/07 08:33:11;;;;;;;4.70;2.30;;;17.00;99.90;;;;;;5071142;28;20961;-85
2021/07/07 08:35:38;;;;;;;2.90;2.37;;;17.00;99.90;;;;;;5071218;28;20694;-86
2021/07/07 08:38:05;;;;;;;4.50;2.80;;;17.00;99.90;;;;;;5071455;28;20613;-85
2021/07/07 08:40:33;;;;;;;3.37;2.67;;;16.90;99.90;;;;;;5071445;28;20622;-86
2021/07/07 08:43:00;;;;;;;2.47;2.10;;;16.90;99.90;;;;;;5071151;28;20694;-86
2021/07/07 08:45:27;;;;;;;4.87;2.00;;;16.90;99.90;;;;;;5055004;28;20616;-86
2021/07/07 08:47:54;;;;;;;5.13;3.00;;;16.90;99.90;;;;;;5061121;28;20996;-86
2021/07/07 08:50:25;;;;;;;3.93;2.23;;;17.00;99.90;;;;;;5071041;28;20621;-86
2021/07/07 08:52:55;;;;;;;10.40;2.83;;;17.00;99.90;;;;;;5070720;28;20627;-85
2021/07/07 08:55:23;;;;;;;2.80;2.47;;;17.00;99.90;;;;;;5070232;28;20731;-86
2021/07/07 08:57:51;;;;;;;15.43;3.27;;;17.00;99.90;;;;;;5070475;28;21181;-85
2021/07/07 09:00:22;;;;;;;3.20;2.37;;;17.00;99.90;;;;;;5070670;28;20632;-86
2021/07/07 09:02:54;;;;;;;3.60;2.50;;;17.10;99.90;;;;;;5070225;28;20677;-86
2021/07/07 09:05:23;;;;;;;3.93;3.40;;;17.30;99.90;;;;;;5064623;28;21252;-86
2021/07/07 09:07:51;;;;;;;4.53;2.60;;;17.50;99.90;;;;;;5070338;28;21177;-86
2021/07/07 09:10:26;;;;;;;2.20;1.73;;;17.60;99.90;;;;;;5065930;28;20637;-86
2021/07/07 09:12:53;;;;;;;4.47;2.10;;;17.80;99.90;;;;;;5068883;28;20605;-86
2021/07/07 09:15:20;;;;;;;3.30;2.67;;;17.90;99.90;;;;;;5065036;28;21147;-86
2021/07/07 09:17:54;;;;;;;2.50;1.80;;;18.00;99.90;;;;;;5061445;28;20768;-88
2021/07/07 09:20:28;;;;;;;2.27;2.07;;;18.00;99.90;;;;;;5063295;28;20661;-88
2021/07/07 09:23:14;;;;;;;1.53;1.43;;;18.00;99.90;;;;;;5061968;28;20625;-88
2021/07/07 09:25:48;;;;;;;2.60;2.40;;;18.00;99.90;;;;;;5069979;28;20617;-88
2021/07/07 09:28:17;;;;;;;1.80;1.70;;;18.00;99.90;;;;;;5070464;28;20671;-88
2021/07/07 09:30:44;;;;;;;2.30;1.80;;;17.90;99.90;;;;;;5070213;28;21234;-88
2021/07/07 09:33:14;;;;;;;2.60;2.20;;;17.70;99.90;;;;;;5070695;28;20621;-87
2021/07/07 09:35:45;;;;;;;2.57;2.37;;;17.80;99.90;;;;;;5068543;28;20719;-87
2021/07/07 09:38:14;;;;;;;3.00;2.33;;;17.90;99.90;;;;;;5050784;28;20618;-88
2021/07/07 09:40:43;;;;;;;2.20;2.00;;;18.00;99.90;;;;;;5051013;28;20626;-88
2021/07/07 09:43:11;;;;;;;3.20;2.07;;;17.90;99.90;;;;;;5050108;28;20685;-87
2021/07/07 09:45:49;;;;;;;2.90;2.03;;;18.00;99.90;;;;;;5068078;28;20724;-88
2021/07/07 09:48:17;;;;;;;2.50;2.30;;;17.90;99.90;;;;;;5069930;28;20608;-87
2021/07/07 09:50:47;;;;;;;4.13;2.20;;;17.80;99.90;;;;;;5069742;28;20740;-87
2021/07/07 09:53:16;;;;;;;2.80;2.40;;;17.70;99.90;;;;;;5070602;28;20606;-87
2021/07/07 09:55:45;;;;;;;3.10;2.00;;;17.70;99.90;;;;;;5069754;28;20645;-87
2021/07/07 09:58:12;;;;;;;3.03;2.73;;;17.70;99.90;;;;;;5070600;28;20626;-87
2021/07/07 10:00:43;;;;;;;3.07;2.77;;;17.70;99.90;;;;;;5069842;28;21202;-87
2021/07/07 10:03:13;;;;;;;2.20;2.10;;;17.70;99.90;;;;;;5070252;28;20609;-87
2021/07/07 10:06:09;;;;;;;;;;;;;;;;;;;;;
2021/07/07 10:08:44;;;;;;;4.60;2.43;;;17.90;99.90;;;;;;5070203;28;20719;-87
2021/07/07 10:11:18;;;;;;;3.20;2.73;;;18.00;99.90;;;;;;5069151;28;20664;-87
2021/07/07 10:14:00;;;;;;;3.10;2.80;;;18.10;99.90;;;;;;5056366;28;20644;-87
2021/07/07 10:16:33;;;;;;;2.40;2.20;;;18.20;99.90;;;;;;5069697;28;20649;-87
2021/07/07 10:19:21;;;;;;;1.97;1.87;;;18.20;99.90;;;;;;5069879;28;20632;-88
2021/07/07 10:21:52;;;;;;;6.30;2.40;;;18.20;99.90;;;;;;5070301;28;20704;-88
2021/07/07 10:24:26;;;;;;;2.17;2.07;;;18.40;99.90;;;;;;5070159;28;20601;-87
2021/07/07 10:26:57;;;;;;;4.53;2.40;;;18.50;99.90;;;;;;5069417;28;20613;-88
2021/07/07 10:29:33;;;;;;;3.37;3.07;;;18.60;99.90;;;;;;5070378;28;20605;-88
2021/07/07 10:32:15;;;;;;;2.80;2.50;;;18.70;99.90;;;;;;5053091;28;20625;-88
2021/07/07 10:34:43;;;;;;;2.60;2.40;;;18.60;99.90;;;;;;5053840;28;20625;-88
2021/07/07 10:37:24;;;;;;;7.00;2.77;;;18.70;99.90;;;;;;5054832;28;20668;-88
2021/07/07 10:39:52;;;;;;;2.27;2.10;;;18.70;99.90;;;;;;5054053;28;21135;-89
2021/07/07 10:42:44;;;;;;;2.40;1.90;;;18.90;99.90;;;;;;5053920;28;20629;-89
2021/07/07 10:46:03;;;;;;;2.73;2.53;;;19.10;99.90;;;;;;5067975;28;20648;-89
2021/07/07 10:48:42;;;;;;;3.87;2.20;;;18.90;99.90;;;;;;5073791;28;20647;-88
2021/07/07 10:51:35;;;;;;;2.20;2.03;;;19.10;99.90;;;;;;5073456;28;21228;-87
2021/07/07 10:57:02;;;;;;;1.60;1.50;;;19.10;99.90;;;;;;5107762;27;20721;-89
2021/07/07 10:59:31;;;;;;;2.10;2.00;;;19.10;99.90;;;;;;5092166;28;20684;-89
2021/07/07 11:02:06;;;;;;;1.97;1.87;;;19.20;99.90;;;;;;5087554;28;20612;-89
2021/07/07 11:04:35;;;;;;;2.00;1.90;;;19.10;99.90;;;;;;5087424;28;20659;-87
2021/07/07 11:07:28;;;;;;;1.60;1.50;;;19.20;99.90;;;;;;5087553;28;20626;-87
2021/07/07 11:09:56;;;;;;;1.63;1.30;;;19.30;99.90;;;;;;5087328;28;20683;-87
2021/07/07 11:12:51;;;;;;;1.83;1.73;;;19.50;99.90;;;;;;5095924;28;21090;-86
2021/07/07 11:15:19;;;;;;;2.27;1.90;;;19.50;99.90;;;;;;5086703;28;21246;-86
2021/07/07 11:17:48;;;;;;;2.20;2.03;;;19.50;99.90;;;;;;5086597;28;20624;-89
2021/07/07 11:20:18;;;;;;;1.60;1.50;;;19.50;99.90;;;;;;5086875;28;20623;-89
2021/07/07 11:22:48;;;;;;;2.30;1.90;;;19.40;99.90;;;;;;5102119;28;20640;-89
2021/07/07 11:25:17;;;;;;;2.60;1.60;;;19.50;99.90;;;;;;5093923;28;20984;-87
2021/07/07 11:27:45;;;;;;;1.53;1.43;;;19.50;99.90;;;;;;5084888;28;20630;-88
2021/07/07 11:30:27;;;;;;;2.23;2.07;;;19.60;99.90;;;;;;5086861;28;20626;-88
2021/07/07 11:33:03;;;;;;;2.03;1.93;;;19.60;99.90;;;;;;5086908;28;21134;-88
2021/07/07 11:35:32;;;;;;;1.50;1.40;;;19.80;99.90;;;;;;5085192;28;20699;-87
2021/07/07 11:38:01;;;;;;;1.67;1.30;;;19.90;99.90;;;;;;5081619;28;20630;-90
2021/07/07 11:40:32;;;;;;;1.30;1.20;;;19.90;99.90;;;;;;5074265;28;20624;-88
2021/07/07 11:43:05;;;;;;;1.70;1.60;;;19.90;99.90;;;;;;5086144;28;21259;-89
2021/07/07 11:45:35;;;;;;;1.50;1.40;;;20.00;99.90;;;;;;5086944;28;20658;-89
2021/07/07 11:48:08;;;;;;;1.30;1.20;;;20.10;99.90;;;;;;5085591;28;20615;-88
2021/07/07 11:50:36;;;;;;;1.80;1.70;;;20.20;99.90;;;;;;5085414;28;21030;-89
2021/07/07 11:53:05;;;;;;;2.10;1.60;;;20.60;99.90;;;;;;5086233;28;20960;-88
2021/07/07 11:55:55;;;;;;;1.50;1.40;;;20.60;99.90;;;;;;5085810;28;21099;-89
2021/07/07 11:58:30;;;;;;;1.40;1.30;;;20.40;99.90;;;;;;5085381;28;21018;-89
2021/07/07 12:01:04;;;;;;;1.60;1.50;;;20.30;99.90;;;;;;5086829;28;20611;-90
2021/07/07 12:03:35;;;;;;;1.30;1.20;;;20.50;99.90;;;;;;5086382;28;20628;-90
2021/07/07 12:06:07;;;;;;;1.53;1.40;;;20.70;99.90;;;;;;5085346;28;21403;-90
2021/07/07 12:08:39;;;;;;;1.10;1.10;;;20.90;99.90;;;;;;5072775;28;20630;-90
2021/07/07 12:11:14;;;;;;;1.40;1.30;;;21.70;99.90;;;;;;5071878;28;20629;-91
2021/07/07 12:13:45;;;;;;;1.63;1.50;;;22.50;98.90;;;;;;5075652;28;20627;-90
2021/07/07 12:16:28;;;;;;;1.93;1.83;;;22.40;98.50;;;;;;5069351;28;21221;-90
2021/07/07 12:18:56;;;;;;;1.70;1.47;;;21.80;99.40;;;;;;5072087;28;20621;-89
2021/07/07 12:21:43;;;;;;;1.40;1.30;;;21.30;99.90;;;;;;5071526;28;20977;-89
2021/07/07 12:24:12;;;;;;;1.43;1.40;;;21.40;99.90;;;;;;5072810;28;20625;-89
2021/07/07 12:26:41;;;;;;;1.20;1.20;;;21.30;99.90;;;;;;5072150;28;20621;-89
2021/07/07 12:29:12;;;;;;;1.83;1.70;;;21.20;99.90;;;;;;5072033;28;20985;-88
2021/07/07 12:31:41;;;;;;;1.30;1.20;;;21.30;99.90;;;;;;5067009;28;20629;-89
2021/07/07 12:34:08;;;;;;;1.43;1.33;;;21.20;99.90;;;;;;5071987;28;20624;-89
2021/07/07 12:36:40;;;;;;;3.83;1.40;;;21.10;99.90;;;;;;5072287;28;20658;-89
2021/07/07 12:39:15;;;;;;;1.53;1.43;;;21.00;99.90;;;;;;5071575;28;20686;-88
2021/07/07 12:41:44;;;;;;;1.63;1.20;;;21.00;99.90;;;;;;5071494;28;20641;-88
2021/07/07 12:44:13;;;;;;;1.43;1.33;;;20.80;99.90;;;;;;5066345;28;20755;-89
2021/07/07 12:46:54;;;;;;;2.10;1.37;;;20.80;99.90;;;;;;5072186;28;20615;-88
2021/07/07 12:49:42;;;;;;;1.30;1.20;;;21.30;99.90;;;;;;5072403;28;20621;-89
2021/07/07 12:52:25;;;;;;;4.53;1.07;;;22.00;99.90;;;;;;5072043;28;20632;-89
2021/07/07 12:55:11;;;;;;;1.50;1.40;;;22.80;99.90;;;;;;5070899;28;20649;-89
2021/07/07 12:57:49;;;;;;;1.50;1.20;;;23.40;97.50;;;;;;5071293;28;20958;-89
2021/07/07 13:00:18;;;;;;;1.43;1.33;;;23.30;96.10;;;;;;5069726;28;20652;-89